sensor_id;sensor_type;location;lat;lon;timestamp;P1;durP1;ratioP1;P2;durP2;ratioP2
23015;SDS011;11674;52.428;13.584;2022-12-07T00:01:06;21.25;;;7.45;;
23015;SDS011;11674;52.428;13.584;2022-12-07T00:06:17;14.50;;;7.38;;
23015;SDS011;11674;52.428;13.584;2022-12-07T00:11:24;14.18;;;6.95;;
23015;SDS011;11674;52.428;13.584;2022-12-07T00:16:31;14.88;;;7.22;;
23015;SDS011;11674;52.428;13.584;2022-12-07T00:21:40;15.27;;;8.05;;
23015;SDS011;11674;52.428;13.584;2022-12-07T00:26:48;29.20;;;13.05;;
23015;SDS011;11674;52.428;13.584;2022-12-07T00:31:55;14.18;;;7.72;;
23015;SDS011;11674;52.428;13.584;2022-12-07T00:37:02;13.63;;;7.72;;
23015;SDS011;11674;52.428;13.584;2022-12-07T00:42:09;13.63;;;7.18;;
23015;SDS011;11674;52.428;13.584;2022-12-07T00:47:16;12.65;;;7.18;;
23015;SDS011;11674;52.428;13.584;2022-12-07T00:52:23;10.60;;;6.38;;
23015;SDS011;11674;52.428;13.584;2022-12-07T00:57:30;10.55;;;6.85;;
23015;SDS011;11674;52.428;13.584;2022-12-07T01:02:37;9.32;;;5.88;;
23015;SDS011;11674;52.428;13.584;2022-12-07T01:07:44;9.77;;;5.50;;
23015;SDS011;11674;52.428;13.584;2022-12-07T01:12:51;10.73;;;6.30;;
23015;SDS011;11674;52.428;13.584;2022-12-07T01:17:58;9.75;;;5.97;;
23015;SDS011;11674;52.428;13.584;2022-12-07T01:23:05;8.43;;;5.65;;
23015;SDS011;11674;52.428;13.584;2022-12-07T01:28:12;7.70;;;4.82;;
23015;SDS011;11674;52.428;13.584;2022-12-07T01:33:19;8.02;;;5.00;;
23015;SDS011;11674;52.428;13.584;2022-12-07T01:38:26;9.93;;;5.10;;
23015;SDS011;11674;52.428;13.584;2022-12-07T01:43:33;9.52;;;5.65;;
23015;SDS011;11674;52.428;13.584;2022-12-07T01:48:40;7.82;;;4.95;;
23015;SDS011;11674;52.428;13.584;2022-12-07T01:53:48;10.25;;;5.35;;
23015;SDS011;11674;52.428;13.584;2022-12-07T01:58:55;10.68;;;6.32;;
23015;SDS011;11674;52.428;13.584;2022-12-07T02:04:04;12.32;;;6.05;;
23015;SDS011;11674;52.428;13.584;2022-12-07T02:09:12;8.80;;;5.78;;
23015;SDS011;11674;52.428;13.584;2022-12-07T02:14:19;8.45;;;4.82;;
23015;SDS011;11674;52.428;13.584;2022-12-07T02:31:14;7.38;;;4.93;;
23015;SDS011;11674;52.428;13.584;2022-12-07T02:36:27;6.60;;;4.32;;
23015;SDS011;11674;52.428;13.584;2022-12-07T02:41:41;7.20;;;4.68;;
23015;SDS011;11674;52.428;13.584;2022-12-07T02:47:02;8.30;;;4.82;;
23015;SDS011;11674;52.428;13.584;2022-12-07T02:52:13;6.32;;;3.90;;
23015;SDS011;11674;52.428;13.584;2022-12-07T03:08:08;9.68;;;5.75;;
23015;SDS011;11674;52.428;13.584;2022-12-07T03:18:56;7.07;;;4.70;;
23015;SDS011;11674;52.428;13.584;2022-12-07T03:24:08;8.77;;;4.88;;
23015;SDS011;11674;52.428;13.584;2022-12-07T03:29:26;8.65;;;4.50;;
23015;SDS011;11674;52.428;13.584;2022-12-07T03:34:51;8.55;;;5.25;;
23015;SDS011;11674;52.428;13.584;2022-12-07T03:46:19;7.10;;;4.53;;
23015;SDS011;11674;52.428;13.584;2022-12-07T03:51:20;15.90;;;7.60;;
23015;SDS011;11674;52.428;13.584;2022-12-07T03:56:28;6.68;;;4.85;;
23015;SDS011;11674;52.428;13.584;2022-12-07T04:01:36;8.63;;;5.15;;
23015;SDS011;11674;52.428;13.584;2022-12-07T04:06:43;11.90;;;5.80;;
23015;SDS011;11674;52.428;13.584;2022-12-07T04:11:52;10.25;;;5.50;;
23015;SDS011;11674;52.428;13.584;2022-12-07T04:16:59;11.32;;;6.45;;
23015;SDS011;11674;52.428;13.584;2022-12-07T04:22:06;19.08;;;9.30;;
23015;SDS011;11674;52.428;13.584;2022-12-07T04:27:13;11.57;;;6.90;;
23015;SDS011;11674;52.428;13.584;2022-12-07T04:32:20;13.77;;;6.78;;
23015;SDS011;11674;52.428;13.584;2022-12-07T04:37:27;13.80;;;6.85;;
23015;SDS011;11674;52.428;13.584;2022-12-07T04:42:34;17.98;;;8.38;;
23015;SDS011;11674;52.428;13.584;2022-12-07T04:47:41;17.13;;;9.00;;
23015;SDS011;11674;52.428;13.584;2022-12-07T04:52:48;17.17;;;8.68;;
23015;SDS011;11674;52.428;13.584;2022-12-07T04:57:55;18.65;;;8.55;;
23015;SDS011;11674;52.428;13.584;2022-12-07T05:03:02;16.67;;;8.98;;
23015;SDS011;11674;52.428;13.584;2022-12-07T05:08:09;18.80;;;9.07;;
23015;SDS011;11674;52.428;13.584;2022-12-07T05:13:16;20.15;;;10.77;;
23015;SDS011;11674;52.428;13.584;2022-12-07T05:18:23;21.92;;;10.93;;
23015;SDS011;11674;52.428;13.584;2022-12-07T05:23:37;24.02;;;10.85;;
23015;SDS011;11674;52.428;13.584;2022-12-07T05:28:44;21.75;;;10.05;;
23015;SDS011;11674;52.428;13.584;2022-12-07T05:33:53;27.77;;;11.90;;
23015;SDS011;11674;52.428;13.584;2022-12-07T05:39:00;25.75;;;12.68;;
23015;SDS011;11674;52.428;13.584;2022-12-07T05:44:07;22.98;;;10.50;;
23015;SDS011;11674;52.428;13.584;2022-12-07T05:49:14;23.38;;;11.50;;
23015;SDS011;11674;52.428;13.584;2022-12-07T05:54:21;30.45;;;13.30;;
23015;SDS011;11674;52.428;13.584;2022-12-07T05:59:28;29.65;;;13.43;;
23015;SDS011;11674;52.428;13.584;2022-12-07T06:04:45;34.08;;;14.10;;
23015;SDS011;11674;52.428;13.584;2022-12-07T06:09:53;31.15;;;14.50;;
23015;SDS011;11674;52.428;13.584;2022-12-07T06:15:00;29.00;;;13.98;;
23015;SDS011;11674;52.428;13.584;2022-12-07T06:20:07;33.90;;;16.20;;
23015;SDS011;11674;52.428;13.584;2022-12-07T06:25:14;33.22;;;14.80;;
23015;SDS011;11674;52.428;13.584;2022-12-07T06:30:21;29.88;;;14.13;;
23015;SDS011;11674;52.428;13.584;2022-12-07T06:35:28;34.25;;;15.50;;
23015;SDS011;11674;52.428;13.584;2022-12-07T06:40:35;32.15;;;14.80;;
23015;SDS011;11674;52.428;13.584;2022-12-07T06:45:42;42.92;;;16.30;;
23015;SDS011;11674;52.428;13.584;2022-12-07T06:50:49;37.38;;;14.63;;
23015;SDS011;11674;52.428;13.584;2022-12-07T06:55:56;31.98;;;14.70;;
23015;SDS011;11674;52.428;13.584;2022-12-07T07:01:07;27.98;;;14.20;;
23015;SDS011;11674;52.428;13.584;2022-12-07T07:06:16;32.17;;;15.43;;
23015;SDS011;11674;52.428;13.584;2022-12-07T07:11:23;30.33;;;14.85;;
23015;SDS011;11674;52.428;13.584;2022-12-07T07:16:30;35.67;;;15.13;;
23015;SDS011;11674;52.428;13.584;2022-12-07T07:21:37;34.92;;;14.45;;
23015;SDS011;11674;52.428;13.584;2022-12-07T07:26:44;36.38;;;16.83;;
23015;SDS011;11674;52.428;13.584;2022-12-07T07:31:51;31.08;;;14.48;;
23015;SDS011;11674;52.428;13.584;2022-12-07T07:36:58;32.90;;;13.75;;
23015;SDS011;11674;52.428;13.584;2022-12-07T07:42:05;33.95;;;14.27;;
23015;SDS011;11674;52.428;13.584;2022-12-07T07:47:12;31.02;;;14.52;;
23015;SDS011;11674;52.428;13.584;2022-12-07T07:52:19;28.65;;;13.57;;
23015;SDS011;11674;52.428;13.584;2022-12-07T07:57:26;31.85;;;13.60;;
23015;SDS011;11674;52.428;13.584;2022-12-07T08:02:33;27.73;;;12.10;;
23015;SDS011;11674;52.428;13.584;2022-12-07T08:07:40;25.50;;;12.68;;
23015;SDS011;11674;52.428;13.584;2022-12-07T08:12:47;21.80;;;11.85;;
23015;SDS011;11674;52.428;13.584;2022-12-07T08:17:54;26.25;;;12.52;;
23015;SDS011;11674;52.428;13.584;2022-12-07T08:23:01;20.70;;;10.52;;
23015;SDS011;11674;52.428;13.584;2022-12-07T08:28:08;17.63;;;9.95;;
23015;SDS011;11674;52.428;13.584;2022-12-07T08:33:15;18.15;;;9.38;;
23015;SDS011;11674;52.428;13.584;2022-12-07T08:38:22;14.68;;;6.80;;
23015;SDS011;11674;52.428;13.584;2022-12-07T08:43:29;11.10;;;6.45;;
23015;SDS011;11674;52.428;13.584;2022-12-07T08:48:39;12.70;;;6.10;;
23015;SDS011;11674;52.428;13.584;2022-12-07T08:53:50;9.77;;;4.38;;
23015;SDS011;11674;52.428;13.584;2022-12-07T08:59:01;6.03;;;2.90;;
23015;SDS011;11674;52.428;13.584;2022-12-07T09:04:09;3.42;;;2.03;;
23015;SDS011;11674;52.428;13.584;2022-12-07T09:09:16;5.03;;;1.63;;
23015;SDS011;11674;52.428;13.584;2022-12-07T09:14:23;3.65;;;1.38;;
23015;SDS011;11674;52.428;13.584;2022-12-07T09:19:30;3.35;;;2.00;;
23015;SDS011;11674;52.428;13.584;2022-12-07T09:24:37;3.35;;;2.10;;
23015;SDS011;11674;52.428;13.584;2022-12-07T09:29:44;3.97;;;2.38;;
23015;SDS011;11674;52.428;13.584;2022-12-07T09:34:51;4.63;;;2.75;;
23015;SDS011;11674;52.428;13.584;2022-12-07T09:39:58;1.95;;;1.55;;
23015;SDS011;11674;52.428;13.584;2022-12-07T09:45:06;2.72;;;1.73;;
23015;SDS011;11674;52.428;13.584;2022-12-07T09:50:23;12.43;;;3.13;;
23015;SDS011;11674;52.428;13.584;2022-12-07T09:55:33;3.45;;;1.88;;
23015;SDS011;11674;52.428;13.584;2022-12-07T10:00:42;3.78;;;2.15;;
23015;SDS011;11674;52.428;13.584;2022-12-07T10:05:50;2.10;;;1.73;;
23015;SDS011;11674;52.428;13.584;2022-12-07T10:10:57;4.45;;;2.17;;
23015;SDS011;11674;52.428;13.584;2022-12-07T10:22:07;1.88;;;1.70;;
23015;SDS011;11674;52.428;13.584;2022-12-07T10:32:29;4.35;;;2.05;;
23015;SDS011;11674;52.428;13.584;2022-12-07T10:37:41;2.63;;;1.92;;
23015;SDS011;11674;52.428;13.584;2022-12-07T10:42:59;4.43;;;2.22;;
23015;SDS011;11674;52.428;13.584;2022-12-07T10:53:44;3.40;;;2.50;;
23015;SDS011;11674;52.428;13.584;2022-12-07T11:09:47;4.70;;;1.98;;
23015;SDS011;11674;52.428;13.584;2022-12-07T11:25:29;4.95;;;2.22;;
23015;SDS011;11674;52.428;13.584;2022-12-07T11:36:31;3.95;;;2.40;;
23015;SDS011;11674;52.428;13.584;2022-12-07T11:41:48;4.50;;;2.30;;
23015;SDS011;11674;52.428;13.584;2022-12-07T11:47:01;2.30;;;1.90;;
23015;SDS011;11674;52.428;13.584;2022-12-07T11:57:51;9.77;;;2.45;;
23015;SDS011;11674;52.428;13.584;2022-12-07T12:03:08;3.78;;;2.63;;
23015;SDS011;11674;52.428;13.584;2022-12-07T12:08:31;6.47;;;2.85;;
23015;SDS011;11674;52.428;13.584;2022-12-07T12:19:30;3.08;;;2.08;;
23015;SDS011;11674;52.428;13.584;2022-12-07T12:24:41;4.53;;;2.13;;
23015;SDS011;11674;52.428;13.584;2022-12-07T12:29:52;6.47;;;2.50;;
23015;SDS011;11674;52.428;13.584;2022-12-07T12:35:21;2.60;;;2.00;;
23015;SDS011;11674;52.428;13.584;2022-12-07T12:40:38;3.67;;;1.85;;
23015;SDS011;11674;52.428;13.584;2022-12-07T12:45:45;5.53;;;2.22;;
23015;SDS011;11674;52.428;13.584;2022-12-07T12:51:35;7.95;;;2.67;;
23015;SDS011;11674;52.428;13.584;2022-12-07T12:57:09;5.90;;;2.10;;
23015;SDS011;11674;52.428;13.584;2022-12-07T13:12:59;6.28;;;2.42;;
23015;SDS011;11674;52.428;13.584;2022-12-07T13:33:54;10.32;;;2.50;;
23015;SDS011;11674;52.428;13.584;2022-12-07T13:39:17;3.97;;;2.05;;
23015;SDS011;11674;52.428;13.584;2022-12-07T13:44:26;6.53;;;2.80;;
23015;SDS011;11674;52.428;13.584;2022-12-07T13:49:38;9.88;;;4.93;;
23015;SDS011;11674;52.428;13.584;2022-12-07T14:00:19;8.90;;;2.40;;
23015;SDS011;11674;52.428;13.584;2022-12-07T14:05:29;7.07;;;1.77;;
23015;SDS011;11674;52.428;13.584;2022-12-07T14:15:56;3.15;;;2.05;;
23015;SDS011;11674;52.428;13.584;2022-12-07T14:21:05;6.15;;;2.05;;
23015;SDS011;11674;52.428;13.584;2022-12-07T14:26:20;7.00;;;2.35;;
23015;SDS011;11674;52.428;13.584;2022-12-07T14:31:27;7.22;;;2.10;;
23015;SDS011;11674;52.428;13.584;2022-12-07T14:36:40;16.92;;;6.05;;
23015;SDS011;11674;52.428;13.584;2022-12-07T14:41:47;10.00;;;2.20;;
23015;SDS011;11674;52.428;13.584;2022-12-07T14:46:55;4.63;;;2.13;;
23015;SDS011;11674;52.428;13.584;2022-12-07T14:52:02;9.07;;;2.15;;
23015;SDS011;11674;52.428;13.584;2022-12-07T14:57:11;5.18;;;2.20;;
23015;SDS011;11674;52.428;13.584;2022-12-07T15:02:18;7.60;;;2.83;;
23015;SDS011;11674;52.428;13.584;2022-12-07T15:07:25;4.85;;;2.22;;
23015;SDS011;11674;52.428;13.584;2022-12-07T15:12:32;8.45;;;2.22;;
23015;SDS011;11674;52.428;13.584;2022-12-07T15:17:39;11.07;;;1.98;;
23015;SDS011;11674;52.428;13.584;2022-12-07T15:22:46;4.28;;;2.03;;
23015;SDS011;11674;52.428;13.584;2022-12-07T15:27:53;7.93;;;2.30;;
23015;SDS011;11674;52.428;13.584;2022-12-07T15:33:00;7.13;;;2.30;;
23015;SDS011;11674;52.428;13.584;2022-12-07T15:38:07;6.53;;;2.20;;
23015;SDS011;11674;52.428;13.584;2022-12-07T15:43:14;5.28;;;2.03;;
23015;SDS011;11674;52.428;13.584;2022-12-07T15:48:21;5.70;;;2.13;;
23015;SDS011;11674;52.428;13.584;2022-12-07T15:53:28;6.65;;;2.15;;
23015;SDS011;11674;52.428;13.584;2022-12-07T15:58:35;5.20;;;2.05;;
23015;SDS011;11674;52.428;13.584;2022-12-07T16:03:49;6.97;;;2.45;;
23015;SDS011;11674;52.428;13.584;2022-12-07T16:08:56;10.20;;;2.35;;
23015;SDS011;11674;52.428;13.584;2022-12-07T16:14:03;5.60;;;2.78;;
23015;SDS011;11674;52.428;13.584;2022-12-07T16:19:10;6.72;;;2.25;;
23015;SDS011;11674;52.428;13.584;2022-12-07T16:24:17;7.65;;;2.45;;
23015;SDS011;11674;52.428;13.584;2022-12-07T16:29:24;4.25;;;2.58;;
23015;SDS011;11674;52.428;13.584;2022-12-07T16:34:31;4.10;;;2.17;;
23015;SDS011;11674;52.428;13.584;2022-12-07T16:39:38;4.97;;;2.33;;
23015;SDS011;11674;52.428;13.584;2022-12-07T16:44:45;8.98;;;3.22;;
23015;SDS011;11674;52.428;13.584;2022-12-07T16:49:52;8.95;;;2.50;;
23015;SDS011;11674;52.428;13.584;2022-12-07T16:54:59;7.60;;;2.83;;
23015;SDS011;11674;52.428;13.584;2022-12-07T17:00:06;3.38;;;1.90;;
23015;SDS011;11674;52.428;13.584;2022-12-07T17:05:29;4.75;;;2.10;;
23015;SDS011;11674;52.428;13.584;2022-12-07T17:10:38;4.15;;;1.90;;
23015;SDS011;11674;52.428;13.584;2022-12-07T17:15:54;6.40;;;2.17;;
23015;SDS011;11674;52.428;13.584;2022-12-07T17:21:11;7.22;;;2.35;;
23015;SDS011;11674;52.428;13.584;2022-12-07T17:26:20;7.38;;;2.63;;
23015;SDS011;11674;52.428;13.584;2022-12-07T17:31:28;8.95;;;2.30;;
23015;SDS011;11674;52.428;13.584;2022-12-07T17:36:35;10.18;;;3.40;;
23015;SDS011;11674;52.428;13.584;2022-12-07T17:41:42;6.30;;;2.20;;
23015;SDS011;11674;52.428;13.584;2022-12-07T17:46:50;8.90;;;2.35;;
23015;SDS011;11674;52.428;13.584;2022-12-07T17:51:58;7.28;;;2.40;;
23015;SDS011;11674;52.428;13.584;2022-12-07T17:57:05;4.28;;;2.22;;
23015;SDS011;11674;52.428;13.584;2022-12-07T18:02:12;8.77;;;2.30;;
23015;SDS011;11674;52.428;13.584;2022-12-07T18:07:19;11.02;;;3.20;;
23015;SDS011;11674;52.428;13.584;2022-12-07T18:12:26;6.90;;;2.45;;
23015;SDS011;11674;52.428;13.584;2022-12-07T18:17:33;8.35;;;3.35;;
23015;SDS011;11674;52.428;13.584;2022-12-07T18:22:40;8.98;;;3.28;;
23015;SDS011;11674;52.428;13.584;2022-12-07T18:27:47;8.95;;;3.30;;
23015;SDS011;11674;52.428;13.584;2022-12-07T18:32:54;7.95;;;3.08;;
23015;SDS011;11674;52.428;13.584;2022-12-07T18:38:01;8.95;;;3.58;;
23015;SDS011;11674;52.428;13.584;2022-12-07T18:43:09;9.68;;;3.50;;
23015;SDS011;11674;52.428;13.584;2022-12-07T18:48:16;11.93;;;4.28;;
23015;SDS011;11674;52.428;13.584;2022-12-07T18:53:23;8.60;;;3.53;;
23015;SDS011;11674;52.428;13.584;2022-12-07T18:58:30;10.05;;;3.80;;
23015;SDS011;11674;52.428;13.584;2022-12-07T19:03:38;7.63;;;3.08;;
23015;SDS011;11674;52.428;13.584;2022-12-07T19:08:45;5.82;;;3.22;;
23015;SDS011;11674;52.428;13.584;2022-12-07T19:13:52;14.00;;;4.65;;
23015;SDS011;11674;52.428;13.584;2022-12-07T19:18:59;9.10;;;4.13;;
23015;SDS011;11674;52.428;13.584;2022-12-07T19:24:06;9.57;;;4.63;;
23015;SDS011;11674;52.428;13.584;2022-12-07T19:29:13;11.65;;;4.53;;
23015;SDS011;11674;52.428;13.584;2022-12-07T19:34:20;15.50;;;4.97;;
23015;SDS011;11674;52.428;13.584;2022-12-07T19:39:27;7.05;;;4.63;;
23015;SDS011;11674;52.428;13.584;2022-12-07T19:44:34;11.35;;;4.22;;
23015;SDS011;11674;52.428;13.584;2022-12-07T19:49:42;8.90;;;4.00;;
23015;SDS011;11674;52.428;13.584;2022-12-07T19:54:50;11.18;;;4.00;;
23015;SDS011;11674;52.428;13.584;2022-12-07T19:59:57;14.27;;;4.20;;
23015;SDS011;11674;52.428;13.584;2022-12-07T20:05:04;7.53;;;4.20;;
23015;SDS011;11674;52.428;13.584;2022-12-07T20:10:11;10.57;;;4.38;;
23015;SDS011;11674;52.428;13.584;2022-12-07T20:15:18;12.00;;;4.85;;
23015;SDS011;11674;52.428;13.584;2022-12-07T20:20:25;7.78;;;4.40;;
23015;SDS011;11674;52.428;13.584;2022-12-07T20:25:35;13.35;;;4.65;;
23015;SDS011;11674;52.428;13.584;2022-12-07T20:30:46;12.57;;;4.55;;
23015;SDS011;11674;52.428;13.584;2022-12-07T20:36:01;11.82;;;4.93;;
23015;SDS011;11674;52.428;13.584;2022-12-07T20:41:10;13.73;;;4.60;;
23015;SDS011;11674;52.428;13.584;2022-12-07T20:46:18;8.02;;;4.43;;
23015;SDS011;11674;52.428;13.584;2022-12-07T20:51:26;9.32;;;4.30;;
23015;SDS011;11674;52.428;13.584;2022-12-07T20:56:34;9.45;;;4.80;;
23015;SDS011;11674;52.428;13.584;2022-12-07T21:01:42;19.33;;;5.38;;
23015;SDS011;11674;52.428;13.584;2022-12-07T21:06:49;10.45;;;5.00;;
23015;SDS011;11674;52.428;13.584;2022-12-07T21:11:56;12.55;;;5.15;;
23015;SDS011;11674;52.428;13.584;2022-12-07T21:17:03;13.90;;;5.40;;
23015;SDS011;11674;52.428;13.584;2022-12-07T21:22:10;10.15;;;5.00;;
23015;SDS011;11674;52.428;13.584;2022-12-07T21:27:17;10.25;;;5.20;;
23015;SDS011;11674;52.428;13.584;2022-12-07T21:32:24;9.88;;;4.28;;
23015;SDS011;11674;52.428;13.584;2022-12-07T21:37:31;9.73;;;5.13;;
23015;SDS011;11674;52.428;13.584;2022-12-07T21:42:38;11.25;;;5.00;;
23015;SDS011;11674;52.428;13.584;2022-12-07T21:47:45;10.57;;;4.47;;
23015;SDS011;11674;52.428;13.584;2022-12-07T21:52:52;14.07;;;5.18;;
23015;SDS011;11674;52.428;13.584;2022-12-07T21:57:59;9.73;;;4.10;;
23015;SDS011;11674;52.428;13.584;2022-12-07T22:03:07;9.70;;;4.53;;
23015;SDS011;11674;52.428;13.584;2022-12-07T22:08:17;10.95;;;4.07;;
23015;SDS011;11674;52.428;13.584;2022-12-07T22:13:24;11.32;;;4.35;;
23015;SDS011;11674;52.428;13.584;2022-12-07T22:18:31;13.30;;;5.40;;
23015;SDS011;11674;52.428;13.584;2022-12-07T22:23:38;11.60;;;4.95;;
23015;SDS011;11674;52.428;13.584;2022-12-07T22:28:45;11.60;;;4.18;;
23015;SDS011;11674;52.428;13.584;2022-12-07T22:33:52;8.77;;;3.70;;
23015;SDS011;11674;52.428;13.584;2022-12-07T22:38:59;9.27;;;3.95;;
23015;SDS011;11674;52.428;13.584;2022-12-07T22:44:07;8.00;;;3.78;;
23015;SDS011;11674;52.428;13.584;2022-12-07T22:49:13;8.25;;;3.88;;
23015;SDS011;11674;52.428;13.584;2022-12-07T22:54:20;12.85;;;4.22;;
23015;SDS011;11674;52.428;13.584;2022-12-07T22:59:27;10.43;;;3.63;;
23015;SDS011;11674;52.428;13.584;2022-12-07T23:04:34;7.00;;;3.95;;
23015;SDS011;11674;52.428;13.584;2022-12-07T23:09:41;9.15;;;3.60;;
23015;SDS011;11674;52.428;13.584;2022-12-07T23:14:48;8.98;;;4.35;;
23015;SDS011;11674;52.428;13.584;2022-12-07T23:19:55;9.10;;;4.07;;
23015;SDS011;11674;52.428;13.584;2022-12-07T23:25:02;9.85;;;4.07;;
23015;SDS011;11674;52.428;13.584;2022-12-07T23:30:09;8.63;;;3.92;;
23015;SDS011;11674;52.428;13.584;2022-12-07T23:35:16;10.95;;;4.07;;
23015;SDS011;11674;52.428;13.584;2022-12-07T23:40:23;10.75;;;4.45;;
23015;SDS011;11674;52.428;13.584;2022-12-07T23:45:30;11.07;;;4.03;;
23015;SDS011;11674;52.428;13.584;2022-12-07T23:50:37;7.55;;;3.85;;
23015;SDS011;11674;52.428;13.584;2022-12-07T23:55:45;6.40;;;3.47;;
